sensor_id;sensor_type;location;lat;lon;timestamp;P1;durP1;ratioP1;P2;durP2;ratioP2
17441;SDS011;8838;50.144;8.176;2022-12-18T00:01:15;33.47;;;16.03;;
17441;SDS011;8838;50.144;8.176;2022-12-18T00:03:44;31.00;;;16.23;;
17441;SDS011;8838;50.144;8.176;2022-12-18T00:06:11;36.67;;;17.83;;
17441;SDS011;8838;50.144;8.176;2022-12-18T00:08:38;35.60;;;17.70;;
17441;SDS011;8838;50.144;8.176;2022-12-18T00:11:07;31.90;;;16.60;;
17441;SDS011;8838;50.144;8.176;2022-12-18T00:13:34;28.30;;;16.30;;
17441;SDS011;8838;50.144;8.176;2022-12-18T00:16:02;31.60;;;16.33;;
17441;SDS011;8838;50.144;8.176;2022-12-18T00:18:30;31.43;;;15.90;;
17441;SDS011;8838;50.144;8.176;2022-12-18T00:20:58;31.83;;;15.07;;
17441;SDS011;8838;50.144;8.176;2022-12-18T00:23:26;29.47;;;15.77;;
17441;SDS011;8838;50.144;8.176;2022-12-18T00:25:52;30.73;;;15.13;;
17441;SDS011;8838;50.144;8.176;2022-12-18T00:28:21;29.73;;;15.77;;
17441;SDS011;8838;50.144;8.176;2022-12-18T00:30:48;35.33;;;15.70;;
17441;SDS011;8838;50.144;8.176;2022-12-18T00:33:16;33.90;;;15.97;;
17441;SDS011;8838;50.144;8.176;2022-12-18T00:35:43;31.97;;;15.40;;
17441;SDS011;8838;50.144;8.176;2022-12-18T00:38:10;31.50;;;14.93;;
17441;SDS011;8838;50.144;8.176;2022-12-18T00:40:37;30.10;;;14.93;;
17441;SDS011;8838;50.144;8.176;2022-12-18T00:43:03;27.23;;;14.60;;
17441;SDS011;8838;50.144;8.176;2022-12-18T00:45:31;30.70;;;15.17;;
17441;SDS011;8838;50.144;8.176;2022-12-18T00:47:57;27.13;;;14.20;;
17441;SDS011;8838;50.144;8.176;2022-12-18T00:50:24;30.07;;;15.00;;
17441;SDS011;8838;50.144;8.176;2022-12-18T00:52:52;29.03;;;15.10;;
17441;SDS011;8838;50.144;8.176;2022-12-18T00:55:18;31.43;;;15.87;;
17441;SDS011;8838;50.144;8.176;2022-12-18T00:57:45;31.10;;;15.50;;
17441;SDS011;8838;50.144;8.176;2022-12-18T01:00:13;30.90;;;15.97;;
17441;SDS011;8838;50.144;8.176;2022-12-18T01:02:42;28.93;;;14.73;;
17441;SDS011;8838;50.144;8.176;2022-12-18T01:05:09;29.90;;;15.63;;
17441;SDS011;8838;50.144;8.176;2022-12-18T01:07:37;34.20;;;15.80;;
17441;SDS011;8838;50.144;8.176;2022-12-18T01:10:04;30.57;;;15.50;;
17441;SDS011;8838;50.144;8.176;2022-12-18T01:14:59;29.50;;;14.97;;
17441;SDS011;8838;50.144;8.176;2022-12-18T01:17:26;33.83;;;15.90;;
17441;SDS011;8838;50.144;8.176;2022-12-18T01:19:54;33.03;;;15.73;;
17441;SDS011;8838;50.144;8.176;2022-12-18T01:22:21;28.90;;;15.03;;
17441;SDS011;8838;50.144;8.176;2022-12-18T01:24:48;30.03;;;15.07;;
17441;SDS011;8838;50.144;8.176;2022-12-18T01:27:15;35.13;;;15.60;;
17441;SDS011;8838;50.144;8.176;2022-12-18T01:29:41;31.23;;;16.27;;
17441;SDS011;8838;50.144;8.176;2022-12-18T01:32:08;32.17;;;16.03;;
17441;SDS011;8838;50.144;8.176;2022-12-18T01:34:35;30.30;;;15.50;;
17441;SDS011;8838;50.144;8.176;2022-12-18T01:37:04;32.23;;;15.73;;
17441;SDS011;8838;50.144;8.176;2022-12-18T01:39:31;33.97;;;16.13;;
17441;SDS011;8838;50.144;8.176;2022-12-18T01:41:58;27.30;;;14.67;;
17441;SDS011;8838;50.144;8.176;2022-12-18T01:44:50;32.80;;;14.80;;
17441;SDS011;8838;50.144;8.176;2022-12-18T01:47:25;32.00;;;15.53;;
17441;SDS011;8838;50.144;8.176;2022-12-18T01:49:55;32.37;;;14.50;;
17441;SDS011;8838;50.144;8.176;2022-12-18T01:52:27;30.07;;;14.70;;
17441;SDS011;8838;50.144;8.176;2022-12-18T01:54:56;31.53;;;15.53;;
17441;SDS011;8838;50.144;8.176;2022-12-18T01:57:24;32.33;;;15.10;;
17441;SDS011;8838;50.144;8.176;2022-12-18T01:59:52;31.40;;;15.17;;
17441;SDS011;8838;50.144;8.176;2022-12-18T02:02:22;31.30;;;15.07;;
17441;SDS011;8838;50.144;8.176;2022-12-18T02:04:49;31.33;;;14.80;;
17441;SDS011;8838;50.144;8.176;2022-12-18T02:07:17;33.30;;;15.83;;
17441;SDS011;8838;50.144;8.176;2022-12-18T02:09:54;32.47;;;16.57;;
17441;SDS011;8838;50.144;8.176;2022-12-18T02:12:26;34.50;;;17.97;;
17441;SDS011;8838;50.144;8.176;2022-12-18T02:15:02;35.10;;;18.90;;
17441;SDS011;8838;50.144;8.176;2022-12-18T02:17:36;38.60;;;19.83;;
17441;SDS011;8838;50.144;8.176;2022-12-18T02:20:11;39.40;;;18.83;;
17441;SDS011;8838;50.144;8.176;2022-12-18T02:22:44;36.07;;;17.37;;
17441;SDS011;8838;50.144;8.176;2022-12-18T02:25:26;43.07;;;19.47;;
17441;SDS011;8838;50.144;8.176;2022-12-18T02:28:06;43.30;;;18.37;;
17441;SDS011;8838;50.144;8.176;2022-12-18T02:30:37;39.07;;;19.47;;
17441;SDS011;8838;50.144;8.176;2022-12-18T02:33:06;42.00;;;20.00;;
17441;SDS011;8838;50.144;8.176;2022-12-18T02:35:35;43.13;;;20.77;;
17441;SDS011;8838;50.144;8.176;2022-12-18T02:38:03;41.67;;;20.53;;
17441;SDS011;8838;50.144;8.176;2022-12-18T02:40:31;42.10;;;19.43;;
17441;SDS011;8838;50.144;8.176;2022-12-18T02:43:02;36.33;;;18.67;;
17441;SDS011;8838;50.144;8.176;2022-12-18T02:45:30;40.17;;;18.83;;
17441;SDS011;8838;50.144;8.176;2022-12-18T02:47:57;40.40;;;19.27;;
17441;SDS011;8838;50.144;8.176;2022-12-18T02:50:26;39.37;;;18.90;;
17441;SDS011;8838;50.144;8.176;2022-12-18T02:53:03;44.87;;;19.90;;
17441;SDS011;8838;50.144;8.176;2022-12-18T02:55:39;39.37;;;19.50;;
17441;SDS011;8838;50.144;8.176;2022-12-18T02:58:18;44.13;;;20.43;;
17441;SDS011;8838;50.144;8.176;2022-12-18T03:00:56;40.77;;;21.03;;
17441;SDS011;8838;50.144;8.176;2022-12-18T03:03:28;41.80;;;20.40;;
17441;SDS011;8838;50.144;8.176;2022-12-18T03:06:00;42.57;;;19.40;;
17441;SDS011;8838;50.144;8.176;2022-12-18T03:08:31;41.53;;;20.20;;
17441;SDS011;8838;50.144;8.176;2022-12-18T03:11:05;44.93;;;22.20;;
17441;SDS011;8838;50.144;8.176;2022-12-18T03:13:35;42.40;;;21.57;;
17441;SDS011;8838;50.144;8.176;2022-12-18T03:16:07;45.57;;;21.83;;
17441;SDS011;8838;50.144;8.176;2022-12-18T03:18:38;43.00;;;21.37;;
17441;SDS011;8838;50.144;8.176;2022-12-18T03:21:09;40.87;;;19.60;;
17441;SDS011;8838;50.144;8.176;2022-12-18T03:23:39;41.47;;;20.27;;
17441;SDS011;8838;50.144;8.176;2022-12-18T03:26:09;40.87;;;20.50;;
17441;SDS011;8838;50.144;8.176;2022-12-18T03:28:39;41.40;;;20.83;;
17441;SDS011;8838;50.144;8.176;2022-12-18T03:31:13;43.57;;;20.83;;
17441;SDS011;8838;50.144;8.176;2022-12-18T03:33:41;42.20;;;20.80;;
17441;SDS011;8838;50.144;8.176;2022-12-18T03:36:12;43.03;;;20.93;;
17441;SDS011;8838;50.144;8.176;2022-12-18T03:38:39;44.30;;;21.07;;
17441;SDS011;8838;50.144;8.176;2022-12-18T03:41:07;46.07;;;21.57;;
17441;SDS011;8838;50.144;8.176;2022-12-18T03:43:42;41.23;;;19.87;;
17441;SDS011;8838;50.144;8.176;2022-12-18T03:46:20;41.50;;;19.87;;
17441;SDS011;8838;50.144;8.176;2022-12-18T03:48:55;43.07;;;20.90;;
17441;SDS011;8838;50.144;8.176;2022-12-18T03:51:28;40.50;;;19.83;;
17441;SDS011;8838;50.144;8.176;2022-12-18T03:54:03;45.00;;;20.17;;
17441;SDS011;8838;50.144;8.176;2022-12-18T03:56:33;41.13;;;20.93;;
17441;SDS011;8838;50.144;8.176;2022-12-18T03:59:04;48.23;;;21.33;;
17441;SDS011;8838;50.144;8.176;2022-12-18T04:01:37;45.80;;;21.03;;
17441;SDS011;8838;50.144;8.176;2022-12-18T04:04:07;41.97;;;20.50;;
17441;SDS011;8838;50.144;8.176;2022-12-18T04:06:36;45.13;;;21.37;;
17441;SDS011;8838;50.144;8.176;2022-12-18T04:09:04;43.07;;;20.10;;
17441;SDS011;8838;50.144;8.176;2022-12-18T04:11:31;43.47;;;20.27;;
17441;SDS011;8838;50.144;8.176;2022-12-18T04:13:58;45.73;;;21.37;;
17441;SDS011;8838;50.144;8.176;2022-12-18T04:16:25;41.13;;;19.77;;
17441;SDS011;8838;50.144;8.176;2022-12-18T04:18:54;44.33;;;19.97;;
17441;SDS011;8838;50.144;8.176;2022-12-18T04:21:21;37.83;;;18.30;;
17441;SDS011;8838;50.144;8.176;2022-12-18T04:23:48;44.17;;;20.40;;
17441;SDS011;8838;50.144;8.176;2022-12-18T04:26:15;45.03;;;21.10;;
17441;SDS011;8838;50.144;8.176;2022-12-18T04:28:42;46.57;;;22.27;;
17441;SDS011;8838;50.144;8.176;2022-12-18T04:31:08;44.00;;;20.90;;
17441;SDS011;8838;50.144;8.176;2022-12-18T04:33:35;45.23;;;20.37;;
17441;SDS011;8838;50.144;8.176;2022-12-18T04:36:04;43.17;;;20.40;;
17441;SDS011;8838;50.144;8.176;2022-12-18T04:38:31;42.73;;;20.60;;
17441;SDS011;8838;50.144;8.176;2022-12-18T04:40:58;42.77;;;22.00;;
17441;SDS011;8838;50.144;8.176;2022-12-18T04:43:25;46.77;;;21.20;;
17441;SDS011;8838;50.144;8.176;2022-12-18T04:45:52;44.47;;;21.43;;
17441;SDS011;8838;50.144;8.176;2022-12-18T04:48:18;43.83;;;20.23;;
17441;SDS011;8838;50.144;8.176;2022-12-18T04:50:46;40.97;;;19.60;;
17441;SDS011;8838;50.144;8.176;2022-12-18T04:53:14;44.90;;;20.50;;
17441;SDS011;8838;50.144;8.176;2022-12-18T04:55:41;43.30;;;20.20;;
17441;SDS011;8838;50.144;8.176;2022-12-18T04:58:08;39.30;;;19.93;;
17441;SDS011;8838;50.144;8.176;2022-12-18T05:00:35;44.17;;;21.10;;
17441;SDS011;8838;50.144;8.176;2022-12-18T05:03:01;43.37;;;20.50;;
17441;SDS011;8838;50.144;8.176;2022-12-18T05:05:28;40.73;;;19.17;;
17441;SDS011;8838;50.144;8.176;2022-12-18T05:07:55;42.87;;;20.20;;
17441;SDS011;8838;50.144;8.176;2022-12-18T05:10:23;43.90;;;20.33;;
17441;SDS011;8838;50.144;8.176;2022-12-18T05:12:50;42.93;;;20.80;;
17441;SDS011;8838;50.144;8.176;2022-12-18T05:15:27;40.33;;;19.33;;
17441;SDS011;8838;50.144;8.176;2022-12-18T05:17:54;46.37;;;20.20;;
17441;SDS011;8838;50.144;8.176;2022-12-18T05:20:22;47.07;;;20.90;;
17441;SDS011;8838;50.144;8.176;2022-12-18T05:22:48;43.57;;;20.77;;
17441;SDS011;8838;50.144;8.176;2022-12-18T05:25:17;44.90;;;20.27;;
17441;SDS011;8838;50.144;8.176;2022-12-18T05:27:46;44.60;;;20.80;;
17441;SDS011;8838;50.144;8.176;2022-12-18T05:30:13;43.00;;;20.50;;
17441;SDS011;8838;50.144;8.176;2022-12-18T05:32:41;42.37;;;20.70;;
17441;SDS011;8838;50.144;8.176;2022-12-18T05:35:09;39.83;;;18.30;;
17441;SDS011;8838;50.144;8.176;2022-12-18T05:37:37;43.20;;;20.17;;
17441;SDS011;8838;50.144;8.176;2022-12-18T05:40:04;43.23;;;20.57;;
17441;SDS011;8838;50.144;8.176;2022-12-18T05:42:31;39.37;;;19.20;;
17441;SDS011;8838;50.144;8.176;2022-12-18T05:44:59;39.47;;;18.83;;
17441;SDS011;8838;50.144;8.176;2022-12-18T05:47:26;39.53;;;19.77;;
17441;SDS011;8838;50.144;8.176;2022-12-18T05:49:54;38.03;;;18.50;;
17441;SDS011;8838;50.144;8.176;2022-12-18T05:52:21;40.53;;;19.63;;
17441;SDS011;8838;50.144;8.176;2022-12-18T05:54:47;39.47;;;18.27;;
17441;SDS011;8838;50.144;8.176;2022-12-18T05:57:14;33.03;;;18.13;;
17441;SDS011;8838;50.144;8.176;2022-12-18T05:59:41;40.47;;;20.10;;
17441;SDS011;8838;50.144;8.176;2022-12-18T06:02:09;45.10;;;20.60;;
17441;SDS011;8838;50.144;8.176;2022-12-18T06:04:36;38.50;;;20.33;;
17441;SDS011;8838;50.144;8.176;2022-12-18T06:07:03;38.57;;;19.30;;
17441;SDS011;8838;50.144;8.176;2022-12-18T06:09:30;37.80;;;18.53;;
17441;SDS011;8838;50.144;8.176;2022-12-18T06:11:57;41.17;;;19.47;;
17441;SDS011;8838;50.144;8.176;2022-12-18T06:14:24;41.97;;;18.97;;
17441;SDS011;8838;50.144;8.176;2022-12-18T06:16:50;42.00;;;18.70;;
17441;SDS011;8838;50.144;8.176;2022-12-18T06:19:19;38.20;;;18.03;;
17441;SDS011;8838;50.144;8.176;2022-12-18T06:21:45;35.70;;;18.00;;
17441;SDS011;8838;50.144;8.176;2022-12-18T06:24:14;38.80;;;18.60;;
17441;SDS011;8838;50.144;8.176;2022-12-18T06:26:41;39.63;;;18.20;;
17441;SDS011;8838;50.144;8.176;2022-12-18T06:29:07;36.23;;;17.93;;
17441;SDS011;8838;50.144;8.176;2022-12-18T06:31:34;40.00;;;18.17;;
17441;SDS011;8838;50.144;8.176;2022-12-18T06:34:02;34.90;;;17.60;;
17441;SDS011;8838;50.144;8.176;2022-12-18T06:36:31;38.80;;;18.87;;
17441;SDS011;8838;50.144;8.176;2022-12-18T06:38:58;35.57;;;17.17;;
17441;SDS011;8838;50.144;8.176;2022-12-18T06:41:25;38.47;;;16.97;;
17441;SDS011;8838;50.144;8.176;2022-12-18T06:43:52;36.53;;;16.73;;
17441;SDS011;8838;50.144;8.176;2022-12-18T06:46:18;35.70;;;17.57;;
17441;SDS011;8838;50.144;8.176;2022-12-18T06:48:49;38.20;;;17.60;;
17441;SDS011;8838;50.144;8.176;2022-12-18T06:51:17;35.10;;;17.20;;
17441;SDS011;8838;50.144;8.176;2022-12-18T06:53:46;38.30;;;18.27;;
17441;SDS011;8838;50.144;8.176;2022-12-18T06:56:13;36.13;;;18.27;;
17441;SDS011;8838;50.144;8.176;2022-12-18T06:58:40;33.60;;;16.63;;
17441;SDS011;8838;50.144;8.176;2022-12-18T07:01:08;35.13;;;17.07;;
17441;SDS011;8838;50.144;8.176;2022-12-18T07:03:37;36.50;;;17.40;;
17441;SDS011;8838;50.144;8.176;2022-12-18T07:06:04;34.50;;;17.17;;
17441;SDS011;8838;50.144;8.176;2022-12-18T07:08:32;37.77;;;18.00;;
17441;SDS011;8838;50.144;8.176;2022-12-18T07:11:02;36.53;;;17.37;;
17441;SDS011;8838;50.144;8.176;2022-12-18T07:13:29;40.20;;;18.23;;
17441;SDS011;8838;50.144;8.176;2022-12-18T07:16:02;33.03;;;16.80;;
17441;SDS011;8838;50.144;8.176;2022-12-18T07:18:30;33.27;;;16.07;;
17441;SDS011;8838;50.144;8.176;2022-12-18T07:20:57;36.10;;;16.83;;
17441;SDS011;8838;50.144;8.176;2022-12-18T07:23:23;33.23;;;16.17;;
17441;SDS011;8838;50.144;8.176;2022-12-18T07:25:50;39.30;;;16.83;;
17441;SDS011;8838;50.144;8.176;2022-12-18T07:28:18;37.43;;;17.00;;
17441;SDS011;8838;50.144;8.176;2022-12-18T07:30:45;34.57;;;17.23;;
17441;SDS011;8838;50.144;8.176;2022-12-18T07:33:12;33.00;;;15.80;;
17441;SDS011;8838;50.144;8.176;2022-12-18T07:35:39;32.70;;;15.27;;
17441;SDS011;8838;50.144;8.176;2022-12-18T07:38:06;32.47;;;16.00;;
17441;SDS011;8838;50.144;8.176;2022-12-18T07:40:32;35.67;;;17.67;;
17441;SDS011;8838;50.144;8.176;2022-12-18T07:42:59;34.80;;;16.40;;
17441;SDS011;8838;50.144;8.176;2022-12-18T07:45:27;33.83;;;16.10;;
17441;SDS011;8838;50.144;8.176;2022-12-18T07:47:55;33.77;;;14.87;;
17441;SDS011;8838;50.144;8.176;2022-12-18T07:50:22;30.60;;;15.27;;
17441;SDS011;8838;50.144;8.176;2022-12-18T07:52:50;33.10;;;15.33;;
17441;SDS011;8838;50.144;8.176;2022-12-18T07:55:17;29.30;;;15.17;;
17441;SDS011;8838;50.144;8.176;2022-12-18T07:57:44;31.73;;;14.30;;
17441;SDS011;8838;50.144;8.176;2022-12-18T08:00:11;31.27;;;14.50;;
17441;SDS011;8838;50.144;8.176;2022-12-18T08:02:40;32.33;;;15.97;;
17441;SDS011;8838;50.144;8.176;2022-12-18T08:05:07;31.93;;;15.50;;
17441;SDS011;8838;50.144;8.176;2022-12-18T08:07:35;33.20;;;14.90;;
17441;SDS011;8838;50.144;8.176;2022-12-18T08:10:02;31.30;;;15.53;;
17441;SDS011;8838;50.144;8.176;2022-12-18T08:12:29;31.47;;;15.37;;
17441;SDS011;8838;50.144;8.176;2022-12-18T08:14:56;32.07;;;14.90;;
17441;SDS011;8838;50.144;8.176;2022-12-18T08:17:23;35.60;;;15.87;;
17441;SDS011;8838;50.144;8.176;2022-12-18T08:19:51;35.10;;;15.87;;
17441;SDS011;8838;50.144;8.176;2022-12-18T08:22:18;34.73;;;15.90;;
17441;SDS011;8838;50.144;8.176;2022-12-18T08:24:45;34.83;;;17.00;;
17441;SDS011;8838;50.144;8.176;2022-12-18T08:27:11;34.93;;;17.50;;
17441;SDS011;8838;50.144;8.176;2022-12-18T08:29:39;35.87;;;17.63;;
17441;SDS011;8838;50.144;8.176;2022-12-18T08:32:06;38.70;;;17.47;;
17441;SDS011;8838;50.144;8.176;2022-12-18T08:34:33;37.10;;;17.50;;
17441;SDS011;8838;50.144;8.176;2022-12-18T08:37:01;41.87;;;19.23;;
17441;SDS011;8838;50.144;8.176;2022-12-18T08:39:28;39.53;;;18.13;;
17441;SDS011;8838;50.144;8.176;2022-12-18T08:41:55;36.90;;;18.30;;
17441;SDS011;8838;50.144;8.176;2022-12-18T08:44:39;37.63;;;18.90;;
17441;SDS011;8838;50.144;8.176;2022-12-18T08:47:06;39.13;;;19.43;;
17441;SDS011;8838;50.144;8.176;2022-12-18T08:49:34;39.50;;;19.67;;
17441;SDS011;8838;50.144;8.176;2022-12-18T08:52:02;41.50;;;20.10;;
17441;SDS011;8838;50.144;8.176;2022-12-18T08:54:29;41.27;;;19.43;;
17441;SDS011;8838;50.144;8.176;2022-12-18T08:56:56;42.27;;;19.30;;
17441;SDS011;8838;50.144;8.176;2022-12-18T08:59:23;43.03;;;20.70;;
17441;SDS011;8838;50.144;8.176;2022-12-18T09:01:53;43.83;;;20.80;;
17441;SDS011;8838;50.144;8.176;2022-12-18T09:04:20;45.00;;;21.07;;
17441;SDS011;8838;50.144;8.176;2022-12-18T09:06:47;50.90;;;23.93;;
17441;SDS011;8838;50.144;8.176;2022-12-18T09:09:15;43.70;;;21.83;;
17441;SDS011;8838;50.144;8.176;2022-12-18T09:11:42;41.87;;;19.73;;
17441;SDS011;8838;50.144;8.176;2022-12-18T09:14:09;38.27;;;19.03;;
17441;SDS011;8838;50.144;8.176;2022-12-18T09:16:36;39.40;;;20.63;;
17441;SDS011;8838;50.144;8.176;2022-12-18T09:19:04;39.57;;;20.27;;
17441;SDS011;8838;50.144;8.176;2022-12-18T09:21:33;42.63;;;20.87;;
17441;SDS011;8838;50.144;8.176;2022-12-18T09:24:01;40.37;;;19.73;;
17441;SDS011;8838;50.144;8.176;2022-12-18T09:26:32;34.20;;;17.00;;
17441;SDS011;8838;50.144;8.176;2022-12-18T09:29:02;36.53;;;18.53;;
17441;SDS011;8838;50.144;8.176;2022-12-18T09:31:32;32.40;;;17.93;;
17441;SDS011;8838;50.144;8.176;2022-12-18T09:34:00;35.70;;;18.63;;
17441;SDS011;8838;50.144;8.176;2022-12-18T09:36:27;35.77;;;17.73;;
17441;SDS011;8838;50.144;8.176;2022-12-18T09:38:54;38.57;;;18.57;;
17441;SDS011;8838;50.144;8.176;2022-12-18T09:41:27;34.40;;;18.47;;
17441;SDS011;8838;50.144;8.176;2022-12-18T09:44:11;35.93;;;18.03;;
17441;SDS011;8838;50.144;8.176;2022-12-18T09:46:46;40.80;;;20.10;;
17441;SDS011;8838;50.144;8.176;2022-12-18T09:49:18;36.63;;;18.93;;
17441;SDS011;8838;50.144;8.176;2022-12-18T09:51:49;33.60;;;18.03;;
17441;SDS011;8838;50.144;8.176;2022-12-18T09:54:21;35.27;;;18.47;;
17441;SDS011;8838;50.144;8.176;2022-12-18T09:56:54;36.97;;;18.87;;
17441;SDS011;8838;50.144;8.176;2022-12-18T09:59:22;38.33;;;17.97;;
17441;SDS011;8838;50.144;8.176;2022-12-18T10:01:55;36.60;;;18.47;;
17441;SDS011;8838;50.144;8.176;2022-12-18T10:04:23;41.07;;;19.60;;
17441;SDS011;8838;50.144;8.176;2022-12-18T10:06:52;35.57;;;19.00;;
17441;SDS011;8838;50.144;8.176;2022-12-18T10:09:27;37.90;;;19.37;;
17441;SDS011;8838;50.144;8.176;2022-12-18T10:12:02;45.37;;;21.73;;
17441;SDS011;8838;50.144;8.176;2022-12-18T10:14:36;44.43;;;20.30;;
17441;SDS011;8838;50.144;8.176;2022-12-18T10:17:18;40.40;;;20.37;;
17441;SDS011;8838;50.144;8.176;2022-12-18T10:19:53;35.60;;;17.97;;
17441;SDS011;8838;50.144;8.176;2022-12-18T10:22:26;39.67;;;20.00;;
17441;SDS011;8838;50.144;8.176;2022-12-18T10:25:03;44.53;;;21.23;;
17441;SDS011;8838;50.144;8.176;2022-12-18T10:27:34;40.40;;;20.07;;
17441;SDS011;8838;50.144;8.176;2022-12-18T10:30:04;41.30;;;20.47;;
17441;SDS011;8838;50.144;8.176;2022-12-18T10:32:38;42.40;;;20.27;;
17441;SDS011;8838;50.144;8.176;2022-12-18T10:35:08;40.53;;;19.70;;
17441;SDS011;8838;50.144;8.176;2022-12-18T10:40:50;40.73;;;20.77;;
17441;SDS011;8838;50.144;8.176;2022-12-18T10:43:24;41.93;;;20.23;;
17441;SDS011;8838;50.144;8.176;2022-12-18T10:48:51;42.70;;;21.23;;
17441;SDS011;8838;50.144;8.176;2022-12-18T10:51:20;43.43;;;21.97;;
17441;SDS011;8838;50.144;8.176;2022-12-18T10:53:52;40.90;;;20.47;;
17441;SDS011;8838;50.144;8.176;2022-12-18T10:56:22;45.73;;;21.60;;
17441;SDS011;8838;50.144;8.176;2022-12-18T10:58:57;42.77;;;21.10;;
17441;SDS011;8838;50.144;8.176;2022-12-18T11:01:26;45.60;;;21.40;;
17441;SDS011;8838;50.144;8.176;2022-12-18T11:04:00;44.37;;;21.90;;
17441;SDS011;8838;50.144;8.176;2022-12-18T11:06:33;43.33;;;21.47;;
17441;SDS011;8838;50.144;8.176;2022-12-18T11:09:01;43.83;;;21.37;;
17441;SDS011;8838;50.144;8.176;2022-12-18T11:11:29;47.90;;;24.27;;
17441;SDS011;8838;50.144;8.176;2022-12-18T11:14:00;48.00;;;22.90;;
17441;SDS011;8838;50.144;8.176;2022-12-18T11:16:30;52.53;;;24.17;;
17441;SDS011;8838;50.144;8.176;2022-12-18T11:19:10;49.10;;;23.37;;
17441;SDS011;8838;50.144;8.176;2022-12-18T11:21:45;52.03;;;24.70;;
17441;SDS011;8838;50.144;8.176;2022-12-18T11:24:15;50.07;;;24.80;;
17441;SDS011;8838;50.144;8.176;2022-12-18T11:26:48;50.60;;;25.50;;
17441;SDS011;8838;50.144;8.176;2022-12-18T11:29:27;53.00;;;26.60;;
17441;SDS011;8838;50.144;8.176;2022-12-18T11:32:20;55.50;;;25.93;;
17441;SDS011;8838;50.144;8.176;2022-12-18T11:35:03;50.43;;;26.07;;
17441;SDS011;8838;50.144;8.176;2022-12-18T11:37:38;51.03;;;24.83;;
17441;SDS011;8838;50.144;8.176;2022-12-18T11:40:09;50.77;;;25.03;;
17441;SDS011;8838;50.144;8.176;2022-12-18T11:42:45;55.43;;;27.27;;
17441;SDS011;8838;50.144;8.176;2022-12-18T11:45:29;53.53;;;26.47;;
17441;SDS011;8838;50.144;8.176;2022-12-18T11:48:02;56.33;;;26.37;;
17441;SDS011;8838;50.144;8.176;2022-12-18T11:50:33;56.13;;;27.63;;
17441;SDS011;8838;50.144;8.176;2022-12-18T11:53:14;56.83;;;28.30;;
17441;SDS011;8838;50.144;8.176;2022-12-18T11:55:50;57.03;;;27.90;;
17441;SDS011;8838;50.144;8.176;2022-12-18T11:58:29;60.70;;;28.00;;
17441;SDS011;8838;50.144;8.176;2022-12-18T12:01:15;60.97;;;29.00;;
17441;SDS011;8838;50.144;8.176;2022-12-18T12:03:58;57.63;;;27.57;;
17441;SDS011;8838;50.144;8.176;2022-12-18T12:06:44;56.63;;;27.13;;
17441;SDS011;8838;50.144;8.176;2022-12-18T12:09:21;55.20;;;26.30;;
17441;SDS011;8838;50.144;8.176;2022-12-18T12:11:58;60.07;;;29.67;;
17441;SDS011;8838;50.144;8.176;2022-12-18T12:14:40;60.53;;;29.50;;
17441;SDS011;8838;50.144;8.176;2022-12-18T12:17:21;64.97;;;30.10;;
17441;SDS011;8838;50.144;8.176;2022-12-18T12:19:59;65.87;;;30.43;;
17441;SDS011;8838;50.144;8.176;2022-12-18T12:22:35;64.23;;;30.20;;
17441;SDS011;8838;50.144;8.176;2022-12-18T12:25:13;62.77;;;29.20;;
17441;SDS011;8838;50.144;8.176;2022-12-18T12:27:49;72.60;;;30.97;;
17441;SDS011;8838;50.144;8.176;2022-12-18T12:30:26;65.83;;;30.37;;
17441;SDS011;8838;50.144;8.176;2022-12-18T12:33:04;69.47;;;32.50;;
17441;SDS011;8838;50.144;8.176;2022-12-18T12:35:46;71.37;;;32.30;;
17441;SDS011;8838;50.144;8.176;2022-12-18T12:38:21;68.23;;;31.77;;
17441;SDS011;8838;50.144;8.176;2022-12-18T12:40:54;72.03;;;32.40;;
17441;SDS011;8838;50.144;8.176;2022-12-18T12:43:27;75.10;;;34.03;;
17441;SDS011;8838;50.144;8.176;2022-12-18T12:45:58;76.43;;;34.40;;
17441;SDS011;8838;50.144;8.176;2022-12-18T12:48:33;68.50;;;32.73;;
17441;SDS011;8838;50.144;8.176;2022-12-18T12:51:12;76.50;;;33.90;;
17441;SDS011;8838;50.144;8.176;2022-12-18T12:53:42;74.70;;;33.80;;
17441;SDS011;8838;50.144;8.176;2022-12-18T12:56:10;76.90;;;35.37;;
17441;SDS011;8838;50.144;8.176;2022-12-18T12:58:43;76.73;;;34.20;;
17441;SDS011;8838;50.144;8.176;2022-12-18T13:01:18;76.53;;;35.23;;
17441;SDS011;8838;50.144;8.176;2022-12-18T13:03:57;74.77;;;33.97;;
17441;SDS011;8838;50.144;8.176;2022-12-18T13:06:36;68.00;;;31.30;;
17441;SDS011;8838;50.144;8.176;2022-12-18T13:09:08;73.10;;;33.73;;
17441;SDS011;8838;50.144;8.176;2022-12-18T13:11:36;76.53;;;34.67;;
17441;SDS011;8838;50.144;8.176;2022-12-18T13:14:23;72.23;;;31.47;;
17441;SDS011;8838;50.144;8.176;2022-12-18T13:20:04;79.10;;;33.27;;
17441;SDS011;8838;50.144;8.176;2022-12-18T13:22:42;73.37;;;30.87;;
17441;SDS011;8838;50.144;8.176;2022-12-18T13:25:26;75.10;;;32.10;;
17441;SDS011;8838;50.144;8.176;2022-12-18T13:27:57;73.30;;;32.13;;
17441;SDS011;8838;50.144;8.176;2022-12-18T13:30:42;74.40;;;31.20;;
17441;SDS011;8838;50.144;8.176;2022-12-18T13:33:39;77.07;;;31.90;;
17441;SDS011;8838;50.144;8.176;2022-12-18T13:36:25;75.43;;;33.10;;
17441;SDS011;8838;50.144;8.176;2022-12-18T13:39:09;74.57;;;31.67;;
17441;SDS011;8838;50.144;8.176;2022-12-18T13:48:04;70.13;;;29.83;;
17441;SDS011;8838;50.144;8.176;2022-12-18T13:50:40;70.50;;;30.63;;
17441;SDS011;8838;50.144;8.176;2022-12-18T13:53:12;73.70;;;31.17;;
17441;SDS011;8838;50.144;8.176;2022-12-18T13:55:47;85.10;;;33.60;;
17441;SDS011;8838;50.144;8.176;2022-12-18T13:58:16;75.47;;;32.83;;
17441;SDS011;8838;50.144;8.176;2022-12-18T14:00:43;75.77;;;31.30;;
17441;SDS011;8838;50.144;8.176;2022-12-18T14:03:16;70.77;;;29.70;;
17441;SDS011;8838;50.144;8.176;2022-12-18T14:05:45;74.67;;;31.50;;
17441;SDS011;8838;50.144;8.176;2022-12-18T14:08:22;76.57;;;30.73;;
17441;SDS011;8838;50.144;8.176;2022-12-18T14:10:51;80.83;;;33.87;;
17441;SDS011;8838;50.144;8.176;2022-12-18T14:13:20;87.80;;;34.13;;
17441;SDS011;8838;50.144;8.176;2022-12-18T14:15:51;77.47;;;32.37;;
17441;SDS011;8838;50.144;8.176;2022-12-18T14:18:21;84.97;;;33.13;;
17441;SDS011;8838;50.144;8.176;2022-12-18T14:20:50;78.83;;;32.77;;
17441;SDS011;8838;50.144;8.176;2022-12-18T14:23:35;74.97;;;31.50;;
17441;SDS011;8838;50.144;8.176;2022-12-18T14:26:18;77.33;;;29.83;;
17441;SDS011;8838;50.144;8.176;2022-12-18T14:28:47;82.40;;;32.87;;
17441;SDS011;8838;50.144;8.176;2022-12-18T14:31:17;77.53;;;31.47;;
17441;SDS011;8838;50.144;8.176;2022-12-18T14:33:44;79.53;;;32.47;;
17441;SDS011;8838;50.144;8.176;2022-12-18T14:36:13;73.50;;;29.40;;
17441;SDS011;8838;50.144;8.176;2022-12-18T14:38:47;74.87;;;31.50;;
17441;SDS011;8838;50.144;8.176;2022-12-18T14:41:18;77.43;;;31.00;;
17441;SDS011;8838;50.144;8.176;2022-12-18T14:43:49;68.00;;;29.27;;
17441;SDS011;8838;50.144;8.176;2022-12-18T14:46:30;73.23;;;30.20;;
17441;SDS011;8838;50.144;8.176;2022-12-18T14:49:02;76.80;;;32.07;;
17441;SDS011;8838;50.144;8.176;2022-12-18T14:51:30;75.90;;;30.63;;
17441;SDS011;8838;50.144;8.176;2022-12-18T14:54:01;79.97;;;34.03;;
17441;SDS011;8838;50.144;8.176;2022-12-18T14:56:30;74.33;;;31.33;;
17441;SDS011;8838;50.144;8.176;2022-12-18T14:59:01;72.87;;;30.70;;
17441;SDS011;8838;50.144;8.176;2022-12-18T15:01:31;72.93;;;30.53;;
17441;SDS011;8838;50.144;8.176;2022-12-18T15:04:01;72.50;;;29.90;;
17441;SDS011;8838;50.144;8.176;2022-12-18T15:06:31;71.90;;;29.67;;
17441;SDS011;8838;50.144;8.176;2022-12-18T15:09:01;76.67;;;30.70;;
17441;SDS011;8838;50.144;8.176;2022-12-18T15:11:34;79.67;;;32.53;;